Time;durP1;ratioP1;P1;durP2;ratioP2;P2;SDS_P1;SDS_P2;PMS_P1;PMS_P2;Temp;Humidity;BMP_temperature;BMP_pressure;BME280_temperature;BME280_humidity;BME280_pressure;Samples;Min_cycle;Max_cycle;Signal;HPM_P1;HPM_P2
2021/11/27 00:00:30;;;;;;;0.10;0.10;;;;;;;6.53;68.24;98528.28;5090079;28;20028;-87
2021/11/27 00:02:58;;;;;;;0.10;0.10;;;;;;;6.55;68.16;98522.03;5091333;28;20020;-88
2021/11/27 00:05:26;;;;;;;0.10;0.10;;;;;;;6.53;68.38;98518.63;5081122;28;20029;-86
2021/11/27 00:07:53;;;;;;;0.10;0.10;;;;;;;6.56;68.17;98520.28;5076009;28;20031;-87
2021/11/27 00:10:23;;;;;;;0.10;0.10;;;;;;;6.60;68.28;98513.97;5090206;28;20040;-86
2021/11/27 00:12:49;;;;;;;0.10;0.10;;;;;;;6.62;68.35;98520.03;5082662;28;20058;-88
2021/11/27 00:15:18;;;;;;;0.10;0.10;;;;;;;6.64;68.32;98511.16;5085725;28;20435;-89
2021/11/27 00:17:45;;;;;;;0.10;0.10;;;;;;;6.67;68.32;98515.44;5088622;28;20028;-86
2021/11/27 00:20:16;;;;;;;0.10;0.10;;;;;;;6.68;68.27;98517.16;5083587;28;20067;-89
2021/11/27 00:22:43;;;;;;;0.10;0.10;;;;;;;6.68;68.28;98517.16;5084364;28;20048;-88
2021/11/27 00:25:11;;;;;;;0.10;0.10;;;;;;;6.67;68.24;98518.06;5085976;28;20054;-88
2021/11/27 00:27:38;;;;;;;0.20;0.20;;;;;;;6.64;68.54;98511.16;5088562;28;20017;-88
2021/11/27 00:30:07;;;;;;;0.20;0.20;;;;;;;6.67;68.72;98515.44;5086268;28;20051;-86
2021/11/27 00:32:33;;;;;;;0.10;0.10;;;;;;;6.70;68.35;98506.53;5088543;28;20539;-86
2021/11/27 00:34:59;;;;;;;0.10;0.10;;;;;;;6.70;68.33;98507.38;5082700;28;20034;-87
2021/11/27 00:37:25;;;;;;;0.10;0.10;;;;;;;6.68;68.53;98501.34;5075263;28;20426;-89
2021/11/27 00:39:52;;;;;;;0.10;0.10;;;;;;;6.73;68.22;98507.28;5081075;28;20024;-88
2021/11/27 00:42:18;;;;;;;0.10;0.10;;;;;;;6.76;68.24;98507.13;5080362;28;20032;-86
2021/11/27 00:44:44;;;;;;;0.10;0.10;;;;;;;6.74;68.44;98501.09;5082174;28;20067;-89
2021/11/27 00:47:11;;;;;;;0.10;0.10;;;;;;;6.76;68.28;98503.66;5083722;28;20075;-88
2021/11/27 00:49:37;;;;;;;0.10;0.10;;;;;;;6.80;68.37;98506.09;5076757;28;20115;-87
2021/11/27 00:52:04;;;;;;;0.10;0.10;;;;;;;6.78;68.33;98510.56;5087672;28;20437;-88
2021/11/27 00:54:30;;;;;;;0.10;0.10;;;;;;;6.87;68.46;98513.75;5088391;28;20022;-88
2021/11/27 00:56:57;;;;;;;0.10;0.10;;;;;;;6.88;68.46;98512.81;5083150;28;20368;-88
2021/11/27 00:59:23;;;;;;;0.10;0.10;;;;;;;6.92;68.00;98509.13;5084416;28;20020;-88
2021/11/27 01:01:50;;;;;;;0.10;0.10;;;;;;;6.96;68.18;98511.56;5090311;28;20561;-86
2021/11/27 01:04:17;;;;;;;0.10;0.10;;;;;;;7.00;68.24;98504.38;5089893;28;20139;-86
2021/11/27 01:06:43;;;;;;;0.10;0.10;;;;;;;7.04;68.54;98513.88;5090135;28;20052;-89
2021/11/27 01:09:13;;;;;;;0.10;0.10;;;;;;;7.04;68.38;98505.97;5085455;28;20024;-88
2021/11/27 01:11:46;;;;;;;0.10;0.10;;;;;;;7.09;68.60;98517.16;5083088;28;20020;-89
2021/11/27 01:14:15;;;;;;;0.10;0.10;;;;;;;7.10;68.54;98513.63;5080572;28;20033;-89
2021/11/27 01:16:47;;;;;;;0.10;0.10;;;;;;;7.13;68.43;98513.47;5082086;28;20020;-88
2021/11/27 01:19:14;;;;;;;0.10;0.10;;;;;;;7.12;68.56;98509.13;5083005;28;20078;-88
2021/11/27 01:21:44;;;;;;;0.10;0.10;;;;;;;7.12;68.47;98511.75;5076424;28;20193;-87
2021/11/27 01:24:13;;;;;;;0.10;0.10;;;;;;;7.13;68.45;98517.88;5086055;28;20040;-88
2021/11/27 01:26:39;;;;;;;0.13;0.13;;;;;;;7.13;68.38;98521.38;5087805;28;20032;-89
2021/11/27 01:29:06;;;;;;;0.10;0.10;;;;;;;7.15;68.49;98521.28;5090149;28;20020;-87
2021/11/27 01:31:34;;;;;;;0.10;0.10;;;;;;;7.19;68.36;98516.75;5088865;28;20047;-89
2021/11/27 01:34:01;;;;;;;0.10;0.10;;;;;;;7.18;68.38;98522.94;5086599;28;20031;-87
2021/11/27 01:36:27;;;;;;;0.10;0.10;;;;;;;7.20;68.52;98523.75;5085073;28;20020;-87
2021/11/27 01:38:53;;;;;;;0.10;0.10;;;;;;;7.20;68.44;98524.63;5089675;28;20035;-87
2021/11/27 01:41:19;;;;;;;0.10;0.10;;;;;;;7.17;68.30;98524.72;5076073;28;20038;-87
2021/11/27 01:43:47;;;;;;;0.10;0.10;;;;;;;7.15;68.35;98518.66;5089242;28;20028;-87
2021/11/27 01:46:14;;;;;;;0.20;0.20;;;;;;;7.16;68.24;98512.47;5089041;28;20476;-88
2021/11/27 01:48:40;;;;;;;0.10;0.10;;;;;;;7.15;68.14;98523.09;5088400;28;20046;-88
2021/11/27 01:51:17;;;;;;;0.10;0.10;;;;;;;7.20;68.03;98523.75;5091351;28;20024;-87
2021/11/27 01:53:48;;;;;;;0.10;0.10;;;;;;;7.08;68.09;98515.44;5087477;28;20036;-86
2021/11/27 01:56:18;;;;;;;0.10;0.10;;;;;;;7.15;68.35;98525.72;5084333;28;20663;-87
2021/11/27 01:58:45;;;;;;;0.10;0.10;;;;;;;7.10;68.19;98524.16;5083597;28;20027;-86
2021/11/27 02:01:16;;;;;;;0.10;0.10;;;;;;;7.11;68.36;98525.00;5088741;28;20032;-87
2021/11/27 02:03:43;;;;;;;0.10;0.10;;;;;;;7.07;67.98;98513.72;5089751;28;20027;-88
2021/11/27 02:06:11;;;;;;;0.10;0.10;;;;;;;7.02;67.92;98505.19;5091063;28;20028;-88
2021/11/27 02:08:40;;;;;;;0.15;0.15;;;;;;;7.06;68.34;98503.28;5087843;28;20050;-89
2021/11/27 02:11:07;;;;;;;0.10;0.10;;;;;;;7.06;68.11;98493.59;5080054;28;20119;-86
2021/11/27 02:13:43;;;;;;;0.10;0.10;;;;;;;7.09;68.09;98500.50;5088110;28;20024;-87
2021/11/27 02:16:17;;;;;;;0.10;0.10;;;;;;;7.11;68.56;98503.94;5073596;28;20036;-86
2021/11/27 02:18:54;;;;;;;0.10;0.10;;;;;;;7.10;68.02;98500.44;5079046;28;20107;-86
2021/11/27 02:21:31;;;;;;;0.10;0.10;;;;;;;7.07;68.47;98505.00;5084812;28;20051;-86
2021/11/27 02:23:57;;;;;;;0.10;0.10;;;;;;;7.03;68.02;98506.91;5088319;28;20027;-84
2021/11/27 02:26:28;;;;;;;0.10;0.10;;;;;;;7.01;67.92;98514.00;5087857;28;20024;-87
2021/11/27 02:29:00;;;;;;;0.47;0.47;;;;;;;6.98;68.44;98508.88;5089370;28;20538;-86
2021/11/27 02:31:27;;;;;;;0.20;0.20;;;;;;;6.93;67.91;98513.50;5088537;28;20046;-86
2021/11/27 02:33:55;;;;;;;0.10;0.10;;;;;;;6.91;67.96;98507.41;5090392;28;20107;-84
2021/11/27 02:36:23;;;;;;;0.10;0.10;;;;;;;6.87;68.14;98511.97;5089980;28;20048;-87
2021/11/27 02:38:49;;;;;;;0.10;0.10;;;;;;;6.89;68.32;98503.97;5086413;28;20047;-86
2021/11/27 02:41:16;;;;;;;0.10;0.10;;;;;;;6.89;68.31;98503.97;5085114;28;20036;-87
2021/11/27 02:43:42;;;;;;;0.13;0.13;;;;;;;6.92;68.41;98506.50;5082958;28;20025;-86
2021/11/27 02:46:08;;;;;;;1.17;1.02;;;;;;;6.93;68.25;98516.13;5075457;28;20065;-86
2021/11/27 02:48:35;;;;;;;0.10;0.10;;;;;;;6.91;67.94;98525.84;5084182;28;20112;-87
2021/11/27 02:51:01;;;;;;;0.10;0.10;;;;;;;6.84;68.35;98538.44;5083182;28;20036;-87
2021/11/27 02:53:27;;;;;;;0.10;0.10;;;;;;;6.72;68.22;98537.13;5083775;28;20032;-87
2021/11/27 02:55:53;;;;;;;0.10;0.10;;;;;;;6.74;68.19;98537.94;5086518;28;20020;-87
2021/11/27 02:58:20;;;;;;;0.10;0.10;;;;;;;6.69;68.26;98534.66;5088111;28;20024;-86
2021/11/27 03:00:49;;;;;;;0.10;0.10;;;;;;;6.71;68.36;98542.47;5086149;28;20039;-87
2021/11/27 03:03:15;;;;;;;0.20;0.20;;;;;;;6.73;68.62;98541.50;5087149;28;20778;-86
2021/11/27 03:05:41;;;;;;;0.10;0.10;;;;;;;6.69;68.27;98539.03;5072324;28;20071;-87
2021/11/27 03:08:07;;;;;;;0.10;0.10;;;;;;;6.72;68.14;98533.66;5084980;28;20479;-88
2021/11/27 03:10:34;;;;;;;0.10;0.10;;;;;;;6.76;68.27;98533.44;5087894;28;20024;-87
2021/11/27 03:13:00;;;;;;;0.10;0.10;;;;;;;6.83;68.36;98535.84;5089174;28;20107;-87
2021/11/27 03:15:26;;;;;;;0.10;0.10;;;;;;;6.89;68.45;98538.22;5088161;28;20028;-86
2021/11/27 03:17:52;;;;;;;0.10;0.10;;;;;;;6.91;68.24;98544.28;5090036;28;20111;-85
2021/11/27 03:20:20;;;;;;;0.10;0.10;;;;;;;6.93;68.25;98543.28;5089963;28;20028;-86
2021/11/27 03:22:46;;;;;;;0.10;0.10;;;;;;;6.93;68.08;98545.06;5084987;28;20391;-86
2021/11/27 03:25:14;;;;;;;0.10;0.10;;;;;;;6.97;68.34;98549.28;5082861;28;20158;-87
2021/11/27 03:27:40;;;;;;;0.10;0.10;;;;;;;6.95;68.52;98561.63;5087520;28;20016;-87
2021/11/27 03:30:10;;;;;;;0.10;0.10;;;;;;;6.96;68.38;98566.84;5093000;28;20032;-86
2021/11/27 03:32:37;;;;;;;0.10;0.10;;;;;;;6.94;68.20;98565.19;5092517;28;20028;-86
2021/11/27 03:35:04;;;;;;;0.10;0.10;;;;;;;6.95;68.03;98569.53;5091253;28;20020;-86
2021/11/27 03:37:30;;;;;;;0.15;0.15;;;;;;;6.94;67.83;98570.47;5089041;28;20031;-86
2021/11/27 03:39:57;;;;;;;0.10;0.10;;;;;;;6.93;67.95;98569.63;5087634;28;20518;-87
2021/11/27 03:42:23;;;;;;;0.10;0.10;;;;;;;6.96;68.08;98568.63;5075192;28;20032;-87
2021/11/27 03:44:50;;;;;;;0.10;0.10;;;;;;;6.99;68.07;98572.91;5089472;28;20083;-86
2021/11/27 03:47:17;;;;;;;0.10;0.10;;;;;;;7.01;68.34;98577.19;5080138;28;20024;-86
2021/11/27 03:49:44;;;;;;;0.10;0.10;;;;;;;7.04;68.12;98584.09;5078253;28;20024;-87
2021/11/27 03:52:10;;;;;;;0.10;0.10;;;;;;;7.06;68.21;98585.75;5080859;28;20104;-87
2021/11/27 03:54:37;;;;;;;0.10;0.10;;;;;;;7.02;68.17;98578.91;5088498;28;20058;-87
2021/11/27 03:57:04;;;;;;;0.10;0.10;;;;;;;7.03;68.22;98590.28;5092414;28;20539;-87
2021/11/27 03:59:30;;;;;;;0.10;0.10;;;;;;;7.03;68.23;98590.28;5093546;28;20067;-86
2021/11/27 04:01:56;;;;;;;0.10;0.10;;;;;;;7.03;68.17;98593.78;5083462;28;20064;-87
2021/11/27 04:04:23;;;;;;;0.10;0.10;;;;;;;7.05;68.15;98591.97;5091792;28;20028;-88
2021/11/27 04:06:49;;;;;;;0.10;0.10;;;;;;;7.06;67.92;98585.75;5090080;28;20093;-87
2021/11/27 04:09:15;;;;;;;0.10;0.10;;;;;;;7.06;68.25;98588.38;5085993;28;20432;-87
2021/11/27 04:11:42;;;;;;;0.13;0.13;;;;;;;7.11;68.38;98586.41;5090630;28;20032;-87
2021/11/27 04:14:09;;;;;;;0.10;0.10;;;;;;;7.12;68.46;98600.44;5092021;28;20387;-86
2021/11/27 04:16:35;;;;;;;0.13;0.13;;;;;;;7.11;68.38;98594.31;5079233;28;20417;-87
2021/11/27 04:19:01;;;;;;;0.10;0.10;;;;;;;7.10;68.29;98597.88;5078011;28;20086;-86
2021/11/27 04:21:27;;;;;;;0.10;0.10;;;;;;;7.10;68.17;98608.41;5085832;28;20032;-88
2021/11/27 04:23:54;;;;;;;0.10;0.10;;;;;;;7.13;68.34;98604.78;5085907;28;20073;-87
2021/11/27 04:26:21;;;;;;;0.10;0.10;;;;;;;7.13;68.05;98613.53;5091901;28;20053;-88
2021/11/27 04:28:49;;;;;;;0.10;0.10;;;;;;;7.16;68.51;98617.81;5091822;28;20024;-87
2021/11/27 04:31:18;;;;;;;0.20;0.20;;;;;;;7.18;68.35;98616.00;5087170;28;20061;-87
2021/11/27 04:33:46;;;;;;;0.20;0.20;;;;;;;7.22;68.46;98622.00;5092955;28;20094;-87
2021/11/27 04:36:13;;;;;;;0.20;0.20;;;;;;;7.24;68.48;98628.03;5087059;28;20027;-86
2021/11/27 04:38:39;;;;;;;0.10;0.10;;;;;;;7.27;68.23;98641.94;5082771;28;20025;-87
2021/11/27 04:41:06;;;;;;;0.10;0.10;;;;;;;7.29;68.50;98636.63;5089178;28;20020;-86
2021/11/27 04:43:32;;;;;;;0.10;0.10;;;;;;;7.30;68.20;98643.56;5088291;28;20036;-84
2021/11/27 04:46:00;;;;;;;4.20;2.47;;;;;;;7.30;68.60;98638.31;5078033;28;20020;-87
2021/11/27 04:48:27;;;;;;;0.20;0.20;;;;;;;7.29;68.33;98637.47;5081860;28;20055;-85
2021/11/27 04:50:53;;;;;;;0.10;0.10;;;;;;;7.31;68.10;98640.03;5085305;28;20024;-85
2021/11/27 04:53:20;;;;;;;0.10;0.10;;;;;;;7.34;68.46;98644.31;5087302;28;20439;-86
2021/11/27 04:55:46;;;;;;;0.10;0.10;;;;;;;7.36;68.62;98648.59;5091954;28;20103;-86
2021/11/27 04:58:12;;;;;;;0.10;0.10;;;;;;;7.36;68.69;98647.75;5091349;28;20024;-85
2021/11/27 05:00:44;;;;;;;0.10;0.10;;;;;;;7.40;68.35;98658.09;5087397;28;20036;-87
2021/11/27 05:03:10;;;;;;;0.20;0.20;;;;;;;7.40;68.56;98657.22;5077704;28;20097;-86
2021/11/27 05:05:36;;;;;;;0.10;0.10;;;;;;;7.41;68.70;98666.84;5078579;28;20024;-86
2021/11/27 05:08:03;;;;;;;0.10;0.10;;;;;;;7.42;68.73;98663.28;5088799;28;20038;-82
2021/11/27 05:10:29;;;;;;;0.20;0.20;;;;;;;7.42;68.85;98669.41;5089357;28;20032;-85
2021/11/27 05:12:56;;;;;;;0.10;0.10;;;;;;;7.43;68.77;98670.28;5085903;28;20033;-85
2021/11/27 05:15:22;;;;;;;0.10;0.10;;;;;;;7.43;68.50;98673.75;5080646;28;20059;-86
2021/11/27 05:17:48;;;;;;;0.10;0.10;;;;;;;7.43;68.64;98675.56;5080499;28;20434;-88
2021/11/27 05:20:15;;;;;;;0.10;0.10;;;;;;;7.43;68.42;98679.03;5081156;28;20031;-87
2021/11/27 05:22:41;;;;;;;0.10;0.10;;;;;;;7.45;68.73;98687.72;5077101;28;20036;-87
2021/11/27 05:25:08;;;;;;;0.10;0.10;;;;;;;7.45;68.83;98682.47;5090492;28;20036;-87
2021/11/27 05:27:36;;;;;;;0.10;0.10;;;;;;;7.44;68.68;98686.00;5086671;28;20031;-87
2021/11/27 05:30:04;;;;;;;0.20;0.20;;;;;;;7.43;68.66;98686.94;5085763;28;20542;-87
2021/11/27 05:35:17;;;;;;;0.35;0.35;;;;;;;7.39;67.99;98703.78;5112938;27;20400;-86
2021/11/27 05:37:45;;;;;;;0.10;0.10;;;;;;;7.40;68.44;98707.28;5108622;28;20424;-86
2021/11/27 05:40:12;;;;;;;0.10;0.10;;;;;;;7.40;68.53;98710.78;5109345;28;20352;-87
2021/11/27 05:42:38;;;;;;;0.10;0.10;;;;;;;7.40;68.88;98718.69;5109154;28;20093;-87
2021/11/27 05:45:05;;;;;;;0.10;0.10;;;;;;;7.42;68.51;98716.84;5100728;28;20110;-87
2021/11/27 05:47:32;;;;;;;0.10;0.10;;;;;;;7.44;68.70;98730.81;5108955;28;20039;-87
2021/11/27 05:49:58;;;;;;;0.10;0.10;;;;;;;7.45;68.57;98729.91;5106198;28;20089;-86
2021/11/27 05:52:24;;;;;;;0.20;0.20;;;;;;;7.47;68.73;98731.63;5109303;28;20085;-86
2021/11/27 05:54:51;;;;;;;0.10;0.10;;;;;;;7.48;69.03;98735.94;5109035;28;20023;-85
2021/11/27 05:57:17;;;;;;;0.10;0.10;;;;;;;7.49;68.80;98735.03;5106046;28;20023;-87
2021/11/27 05:59:43;;;;;;;0.10;0.10;;;;;;;7.50;68.70;98736.75;5109279;28;20028;-85
2021/11/27 06:02:09;;;;;;;0.15;0.15;;;;;;;7.52;68.47;98745.44;5106290;28;20020;-87
2021/11/27 06:04:35;;;;;;;0.20;0.20;;;;;;;7.52;68.83;98746.28;5108936;28;20020;-87
2021/11/27 06:07:01;;;;;;;0.10;0.10;;;;;;;7.51;68.29;98749.00;5109262;28;20035;-87
2021/11/27 06:09:28;;;;;;;0.13;0.13;;;;;;;7.48;68.20;98754.38;5109279;28;20501;-87
2021/11/27 06:11:54;;;;;;;0.20;0.20;;;;;;;7.42;68.62;98747.59;5109180;28;20122;-86
2021/11/27 06:14:20;;;;;;;0.17;0.17;;;;;;;7.38;68.01;98749.50;5108792;28;20038;-86
2021/11/27 06:16:46;;;;;;;0.10;0.10;;;;;;;7.37;68.21;98760.09;5108670;28;20039;-86
2021/11/27 06:19:13;;;;;;;0.10;0.10;;;;;;;7.35;68.65;98770.72;5109015;28;20053;-86
2021/11/27 06:21:39;;;;;;;0.10;0.10;;;;;;;7.38;68.49;98780.28;5109016;28;20024;-86
2021/11/27 06:24:08;;;;;;;0.20;0.20;;;;;;;7.37;68.81;98778.56;5108554;28;20482;-87
2021/11/27 06:26:35;;;;;;;0.20;0.20;;;;;;;7.37;68.58;98775.91;5108876;28;20081;-86
2021/11/27 06:29:03;;;;;;;0.47;0.47;;;;;;;7.37;68.42;98784.66;5103163;28;20119;-86
2021/11/27 06:31:29;;;;;;;0.10;0.10;;;;;;;7.35;68.46;98789.16;5107479;28;20503;-86
2021/11/27 06:33:55;;;;;;;0.10;0.10;;;;;;;7.36;68.51;98790.00;5105278;28;20081;-86
2021/11/27 06:36:21;;;;;;;0.20;0.20;;;;;;;7.37;68.75;98789.94;5105726;28;20413;-87
2021/11/27 06:38:48;;;;;;;0.10;0.10;;;;;;;7.37;68.57;98792.56;5108392;28;20027;-87
2021/11/27 06:41:14;;;;;;;0.13;0.13;;;;;;;7.39;68.51;98793.38;5108294;28;20039;-86
2021/11/27 06:43:40;;;;;;;0.10;0.10;;;;;;;7.39;68.36;98798.66;5107988;28;20067;-85
2021/11/27 06:46:06;;;;;;;0.10;0.10;;;;;;;7.40;68.42;98803.00;5097112;28;20017;-86
2021/11/27 06:48:32;;;;;;;0.10;0.10;;;;;;;7.40;68.72;98805.63;5094779;28;20056;-87
2021/11/27 06:50:59;;;;;;;0.10;0.10;;;;;;;7.40;69.16;98815.28;5093591;28;20027;-88
2021/11/27 06:53:25;;;;;;;0.10;0.10;;;;;;;7.42;68.92;98824.00;5094522;28;20024;-87
2021/11/27 06:55:52;;;;;;;0.10;0.10;;;;;;;7.43;68.83;98831.84;5095314;28;20047;-85
2021/11/27 06:58:18;;;;;;;0.10;0.10;;;;;;;7.41;68.74;98823.16;5094178;28;20524;-86
2021/11/27 07:00:44;;;;;;;0.10;0.10;;;;;;;7.42;68.54;98837.19;5094567;28;20028;-88
2021/11/27 07:03:10;;;;;;;0.10;0.10;;;;;;;7.39;68.48;98846.06;5089925;28;20028;-87
2021/11/27 07:05:36;;;;;;;0.10;0.10;;;;;;;7.38;68.36;98843.50;5090468;28;20154;-86
2021/11/27 07:08:03;;;;;;;0.10;0.10;;;;;;;7.37;67.87;98845.25;5094061;28;20036;-86
2021/11/27 07:10:29;;;;;;;0.10;0.10;;;;;;;7.37;68.02;98842.63;5093778;28;20024;-87
2021/11/27 07:12:58;;;;;;;0.10;0.10;;;;;;;7.36;68.08;98846.16;5093939;28;20459;-87
2021/11/27 07:15:24;;;;;;;0.15;0.15;;;;;;;7.36;67.96;98854.06;5094899;28;20055;-86
2021/11/27 07:17:50;;;;;;;0.38;0.38;;;;;;;7.34;68.38;98863.84;5093778;28;20043;-86
2021/11/27 07:20:16;;;;;;;0.00;0.00;;;;;;;7.37;68.23;98858.44;5094607;28;20032;-87
2021/11/27 07:22:43;;;;;;;0.10;0.10;;;;;;;7.36;68.40;98850.59;5094761;28;20031;-85
2021/11/27 07:25:09;;;;;;;0.10;0.10;;;;;;;7.36;68.52;98861.97;5094631;28;20043;-85
2021/11/27 07:27:35;;;;;;;0.30;0.30;;;;;;;7.36;68.16;98867.25;5094672;28;20024;-86
2021/11/27 07:30:02;;;;;;;0.10;0.10;;;;;;;7.35;68.46;98868.19;5094428;28;20421;-86
2021/11/27 07:32:28;;;;;;;0.10;0.10;;;;;;;7.37;68.57;98868.97;5094662;28;20032;-86
2021/11/27 07:34:55;;;;;;;0.10;0.10;;;;;;;7.36;68.27;98872.53;5094066;28;20040;-86
2021/11/27 07:37:21;;;;;;;0.20;0.20;;;;;;;7.37;68.75;98874.25;5094213;28;20032;-86
2021/11/27 07:39:47;;;;;;;0.10;0.10;;;;;;;7.38;68.42;98886.50;5094302;28;20095;-85
2021/11/27 07:42:13;;;;;;;0.10;0.10;;;;;;;7.36;68.40;98888.31;5094107;28;20024;-86
2021/11/27 07:44:39;;;;;;;0.10;0.10;;;;;;;7.37;68.51;98894.47;5094111;28;20024;-86
2021/11/27 07:47:05;;;;;;;0.20;0.20;;;;;;;7.33;68.37;98893.72;5091607;28;20024;-87
2021/11/27 07:49:31;;;;;;;0.10;0.10;;;;;;;7.36;68.40;98898.88;5094025;28;20036;-87
2021/11/27 07:51:57;;;;;;;0.20;0.20;;;;;;;7.36;68.25;98908.56;5092975;28;20027;-86
2021/11/27 07:54:25;;;;;;;0.10;0.10;;;;;;;7.34;68.25;98908.63;5093134;28;20028;-87
2021/11/27 07:56:51;;;;;;;0.20;0.20;;;;;;;7.35;68.28;98918.25;5089315;28;20571;-87
2021/11/27 07:59:18;;;;;;;0.10;0.10;;;;;;;7.33;68.46;98922.69;5092333;28;20060;-87
2021/11/27 08:01:44;;;;;;;0.45;0.45;;;;;;;7.34;68.21;98927.06;5091641;28;20378;-87
2021/11/27 08:04:11;;;;;;;0.10;0.10;;;;;;;7.34;68.46;98934.97;5090296;28;20062;-87
2021/11/27 08:06:37;;;;;;;0.30;0.30;;;;;;;7.35;68.34;98933.19;5093640;28;20031;-86
2021/11/27 08:09:03;;;;;;;0.10;0.10;;;;;;;7.32;68.25;98942.06;5092686;28;20432;-86
2021/11/27 08:11:29;;;;;;;1.88;1.80;;;;;;;7.29;67.73;98950.94;5088030;28;20103;-86
2021/11/27 08:13:55;;;;;;;0.10;0.10;;;;;;;7.30;67.96;98957.06;5090081;28;20108;-87
2021/11/27 08:16:22;;;;;;;0.10;0.10;;;;;;;7.27;68.16;98957.19;5093282;28;20471;-86
2021/11/27 08:18:48;;;;;;;0.10;0.10;;;;;;;7.27;68.44;98957.19;5093205;28;20031;-87
2021/11/27 08:21:14;;;;;;;0.68;0.68;;;;;;;7.29;67.91;98960.63;5093397;28;20169;-88
2021/11/27 08:23:41;;;;;;;0.25;0.25;;;;;;;7.29;68.50;98958.84;5092148;28;20043;-87
2021/11/27 08:26:07;;;;;;;0.10;0.10;;;;;;;7.28;67.97;98970.28;5093975;28;20028;-87
2021/11/27 08:28:33;;;;;;;0.10;0.10;;;;;;;7.28;68.21;98972.06;5093234;28;20120;-87
2021/11/27 08:30:59;;;;;;;2.88;1.25;;;;;;;7.23;68.12;98976.66;5092547;28;20023;-87
2021/11/27 08:33:28;;;;;;;0.15;0.15;;;;;;;7.22;68.42;98969.66;5093001;28;20063;-86
2021/11/27 08:35:54;;;;;;;5.63;1.13;;;;;;;7.20;68.37;98974.13;5092553;28;20123;-86
2021/11/27 08:38:20;;;;;;;0.40;0.40;;;;;;;7.17;68.14;98972.44;5089962;28;20059;-88
2021/11/27 08:40:48;;;;;;;0.10;0.10;;;;;;;7.18;68.03;98975.94;5089286;28;20032;-88
2021/11/27 08:43:15;;;;;;;0.10;0.10;;;;;;;7.22;68.20;98974.94;5092172;28;20042;-86
2021/11/27 08:45:44;;;;;;;1.50;1.40;;;;;;;7.27;68.43;98979.09;5082892;28;20386;-87
2021/11/27 08:48:10;;;;;;;0.20;0.20;;;;;;;7.29;67.95;98984.34;5090568;28;20054;-88
2021/11/27 08:50:37;;;;;;;0.20;0.20;;;;;;;7.31;68.43;98985.13;5088039;28;20028;-88
2021/11/27 08:53:03;;;;;;;1.50;1.40;;;;;;;7.32;68.03;98991.25;5091180;28;20064;-89
2021/11/27 08:55:29;;;;;;;0.40;0.40;;;;;;;7.32;68.20;98997.38;5091851;28;20039;-88
2021/11/27 08:57:55;;;;;;;0.10;0.10;;;;;;;7.20;68.16;99003.97;5092086;28;20020;-87
2021/11/27 09:00:21;;;;;;;1.95;1.85;;;;;;;7.12;68.16;98998.94;5091775;28;20451;-86
2021/11/27 09:02:49;;;;;;;0.65;0.65;;;;;;;7.10;68.18;99008.69;5091640;28;20425;-87
2021/11/27 09:05:15;;;;;;;1.42;1.33;;;;;;;7.07;68.07;99006.16;5091120;28;20020;-90
2021/11/27 09:07:41;;;;;;;0.15;0.15;;;;;;;7.07;68.50;99007.94;5088705;28;20377;-90
2021/11/27 09:10:09;;;;;;;0.80;0.80;;;;;;;7.06;68.43;99012.31;5092294;28;20046;-84
2021/11/27 09:12:36;;;;;;;0.20;0.20;;;;;;;7.10;68.39;99002.56;5092556;28;20048;-91
2021/11/27 09:15:02;;;;;;;0.63;0.63;;;;;;;7.11;68.54;99010.38;5091554;28;20024;-87
2021/11/27 09:17:28;;;;;;;0.10;0.10;;;;;;;7.09;68.49;99014.88;5091186;28;20413;-89
2021/11/27 09:19:54;;;;;;;0.40;0.40;;;;;;;7.07;68.51;99008.78;5085958;28;20119;-88
2021/11/27 09:22:20;;;;;;;0.20;0.20;;;;;;;7.09;68.67;99016.63;5088716;28;20024;-85
2021/11/27 09:24:46;;;;;;;0.30;0.30;;;;;;;7.09;68.42;99017.50;5090922;28;20032;-88
2021/11/27 09:27:12;;;;;;;0.10;0.10;;;;;;;7.04;68.86;99015.94;5082833;28;20037;-88
2021/11/27 09:29:39;;;;;;;0.63;0.63;;;;;;;7.07;68.74;99029.00;5079539;28;20025;-84
2021/11/27 09:32:09;;;;;;;0.20;0.20;;;;;;;7.06;68.71;99032.56;5077379;28;20029;-87
2021/11/27 09:34:36;;;;;;;0.20;0.20;;;;;;;7.04;68.55;99037.00;5077738;28;20036;-86
2021/11/27 09:37:04;;;;;;;2.55;1.10;;;;;;;6.97;68.18;99036.38;5076575;28;20031;-87
2021/11/27 09:39:32;;;;;;;0.85;0.85;;;;;;;6.99;68.11;99038.94;5080437;28;20016;-83
2021/11/27 09:41:59;;;;;;;0.40;0.40;;;;;;;6.92;67.77;99041.78;5087790;28;20059;-87
2021/11/27 09:44:31;;;;;;;0.10;0.10;;;;;;;6.88;67.90;99044.56;5084255;28;20028;-84
2021/11/27 09:47:00;;;;;;;0.73;0.73;;;;;;;6.86;67.95;99052.50;5073478;28;20032;-88
2021/11/27 09:49:28;;;;;;;0.10;0.10;;;;;;;6.87;67.83;99048.13;5090305;28;20378;-86
2021/11/27 09:51:55;;;;;;;0.40;0.40;;;;;;;6.83;68.26;99050.00;5086322;28;20394;-89
2021/11/27 09:54:23;;;;;;;0.68;0.68;;;;;;;6.90;68.28;99055.91;5087271;28;20039;-87
2021/11/27 09:56:52;;;;;;;0.10;0.10;;;;;;;6.90;68.25;99054.16;5090568;28;20052;-88
2021/11/27 09:59:19;;;;;;;0.10;0.10;;;;;;;6.91;68.19;99057.63;5091374;28;20056;-87
2021/11/27 10:01:51;;;;;;;0.10;0.10;;;;;;;6.95;68.27;99052.22;5091146;28;20136;-87
2021/11/27 10:04:20;;;;;;;0.43;0.43;;;;;;;6.98;68.84;99051.25;5087811;28;20020;-86
2021/11/27 10:06:47;;;;;;;1.58;1.52;;;;;;;6.99;68.69;99050.34;5090409;28;20477;-87
2021/11/27 10:09:18;;;;;;;0.20;0.20;;;;;;;7.03;68.12;99043.19;5090450;28;20047;-87
2021/11/27 10:11:46;;;;;;;0.20;0.20;;;;;;;7.03;68.19;99048.44;5090114;28;20494;-86
2021/11/27 10:14:12;;;;;;;0.47;0.47;;;;;;;7.02;68.41;99047.59;5090160;28;20032;-84
2021/11/27 10:22:45;;;;;;;0.20;0.20;;;;;;;7.06;67.31;99043.09;5055307;28;20433;-85
2021/11/27 10:25:33;;;;;;;0.15;0.15;;;;;;;7.05;67.48;99036.97;5045357;28;20083;-86
2021/11/27 10:33:27;;;;;;;0.50;0.50;;;;;;;6.99;67.55;99031.03;5081577;28;20527;-84
2021/11/27 10:41:19;;;;;;;0.10;0.10;;;;;;;7.10;67.05;99029.75;5038776;28;20396;-93
2021/11/27 10:44:03;;;;;;;0.10;0.10;;;;;;;7.05;65.86;99031.72;5048297;28;20026;-84
2021/11/27 10:46:32;;;;;;;0.10;0.10;;;;;;;7.06;66.40;99032.56;5045807;28;20036;-84
2021/11/27 10:48:59;;;;;;;0.10;0.10;;;;;;;6.99;66.12;99026.66;5043424;28;20099;-87
2021/11/27 10:51:26;;;;;;;0.73;0.73;;;;;;;7.11;66.18;99025.34;5043650;28;20026;-85
2021/11/27 10:53:55;;;;;;;0.10;0.10;;;;;;;7.18;66.33;99033.88;5037455;28;20037;-86
2021/11/27 10:56:37;;;;;;;0.43;0.43;;;;;;;7.15;66.11;99026.09;5041880;28;20420;-88
2021/11/27 10:59:06;;;;;;;0.10;0.10;;;;;;;7.21;65.55;99026.72;5039714;28;20026;-90
2021/11/27 11:01:55;;;;;;;0.20;0.20;;;;;;;7.20;65.93;99032.94;5044018;28;20021;-88
2021/11/27 11:04:21;;;;;;;0.10;0.10;;;;;;;7.36;65.84;99035.88;5040514;28;20056;-87
2021/11/27 11:06:48;;;;;;;0.20;0.20;;;;;;;7.44;66.01;99033.81;5035987;28;20159;-87
2021/11/27 11:09:15;;;;;;;0.68;0.68;;;;;;;7.48;65.21;99039.84;5040435;28;20103;-88
2021/11/27 11:11:41;;;;;;;0.10;0.10;;;;;;;7.54;64.95;99041.38;5043758;28;20080;-88
2021/11/27 11:14:25;;;;;;;0.10;0.10;;;;;;;7.71;65.11;99046.91;5036443;28;20508;-88
2021/11/27 11:16:58;;;;;;;0.22;0.22;;;;;;;7.77;65.57;99040.53;5043132;28;20032;-85
2021/11/27 11:19:24;;;;;;;0.15;0.15;;;;;;;7.70;65.24;99039.91;5046086;28;20113;-85
2021/11/27 11:25:07;;;;;;;0.90;0.90;;;;;;;7.78;64.54;99032.56;5070932;28;20763;-85
2021/11/27 11:27:35;;;;;;;0.10;0.10;;;;;;;7.70;65.10;99034.66;5049560;28;20025;-86
2021/11/27 11:30:04;;;;;;;0.10;0.10;;;;;;;7.69;65.04;99030.28;5049248;28;20025;-87
2021/11/27 11:32:31;;;;;;;0.10;0.10;;;;;;;7.54;64.76;99029.09;5042932;28;20065;-86
2021/11/27 11:35:01;;;;;;;0.13;0.13;;;;;;;7.43;64.49;99025.97;5047311;28;20029;-87
2021/11/27 11:37:28;;;;;;;0.20;0.20;;;;;;;7.48;64.77;99029.31;5045716;28;20025;-86
2021/11/27 11:39:56;;;;;;;0.10;0.10;;;;;;;7.41;64.92;99022.53;5047641;28;20484;-86
2021/11/27 11:42:25;;;;;;;0.10;0.10;;;;;;;7.24;64.65;99062.63;5047681;28;20424;-86
2021/11/27 11:44:53;;;;;;;0.10;0.10;;;;;;;7.17;65.34;99025.13;5048400;28;20033;-92
2021/11/27 11:47:22;;;;;;;0.10;0.10;;;;;;;7.07;65.59;99024.59;5049041;28;20025;-86
2021/11/27 11:49:58;;;;;;;0.10;0.10;;;;;;;7.05;65.71;99033.47;5049250;28;20484;-85
2021/11/27 11:52:35;;;;;;;0.10;0.10;;;;;;;6.83;65.51;99046.50;5049099;28;20025;-87
2021/11/27 11:55:06;;;;;;;0.10;0.10;;;;;;;6.74;65.60;99048.53;5049130;28;20056;-91
2021/11/27 11:57:54;;;;;;;0.10;0.10;;;;;;;6.55;66.01;99050.03;5040262;28;20029;-89
2021/11/27 12:00:26;;;;;;;0.10;0.10;;;;;;;6.31;65.71;99060.44;5039756;28;20025;-89
2021/11/27 12:03:01;;;;;;;0.20;0.20;;;;;;;6.17;65.94;99057.34;5048755;28;20030;-87
2021/11/27 12:05:29;;;;;;;0.10;0.10;;;;;;;5.97;66.27;99057.03;5048533;28;20052;-87